Flint Hill, North Carolina
Current Conditions -  °F | °C
As of 5:35 AM on Monday 22 Dec 2014 (Local Time) from KVUJ Reporting Station
Heavy Rain Heavy Rain  
Wind Chill: 31°   Ceiling: 700
Heat Index: 38°   Visibility: 7mi
Dew Point: 38°   Wind: 10mph
Humidity: 100%   Direction: 30°NNE
Pressure: 30.16"   Gusts: NA
Location:  35.4086°N, 79.9566°W
Report Text: KVUJ 221035Z AUTO 03009KT 7SM +RA OVC007 04/04 A3016 RMK AO2 P0008 T00350035
Loading
Personal Weather Stations






























Interactive Weather Map New forecast layout! Learn more

10-Day Weather Forecast

Advertisements
Track Severe Weather on mobile